Terminal Aerodrome Forecast
Issued by NWS Springfield, MO

Home | Current Version | Previous Version | Text Only | Print | Product List | Glossary On
Versions: 1 2 3 4 5 6 7 8 9 10 11 12 13 14 15 16 17 18 19 20 21
000
FTUS43 KSGF 031700
TAFSGF
TAF
KSGF 031720Z 0318/0418 31008KT P6SM VCSH SCT007 BKN045
     FM032200 01006KT P6SM BKN050
     FM040000 VRB03KT P6SM BKN150
     FM041000 08005KT 5SM BR SCT200=

USA.gov is the U.S. government's official web portal to all federal, state and local government web resources and services.